createdAt,value
2023-02-24T00:00:33.821Z,9.60
2023-02-24T00:03:11.170Z,9.63
2023-02-24T00:05:44.572Z,9.68
2023-02-24T00:08:12.669Z,10.65
2023-02-24T00:10:40.664Z,9.40
2023-02-24T00:13:12.071Z,9.20
2023-02-24T00:15:40.295Z,9.10
2023-02-24T00:18:08.679Z,9.40
2023-02-24T00:20:37.427Z,8.63
2023-02-24T00:23:05.464Z,9.57
2023-02-24T00:25:33.487Z,8.52
2023-02-24T00:28:02.467Z,8.45
2023-02-24T00:30:33.101Z,9.40
2023-02-24T00:33:03.485Z,10.18
2023-02-24T00:35:32.271Z,9.57
2023-02-24T00:38:00.987Z,8.88
2023-02-24T00:40:30.850Z,9.40
2023-02-24T00:43:00.756Z,9.20
2023-02-24T00:45:30.916Z,9.52
2023-02-24T00:48:00.552Z,9.40
2023-02-24T00:50:28.484Z,9.35
2023-02-24T00:52:56.479Z,9.95
2023-02-24T00:55:27.826Z,9.98
2023-02-24T00:57:56.367Z,9.93
2023-02-24T01:00:24.525Z,9.68
2023-02-24T01:02:52.676Z,10.10
2023-02-24T01:05:22.044Z,9.88
2023-02-24T01:07:50.041Z,10.07
2023-02-24T01:10:18.523Z,9.68
2023-02-24T01:12:51.187Z,9.73
2023-02-24T01:15:22.312Z,9.77
2023-02-24T01:17:50.469Z,9.20
2023-02-24T01:20:19.702Z,8.60
2023-02-24T01:22:53.069Z,9.63
2023-02-24T01:25:21.711Z,9.43
2023-02-24T01:27:50.684Z,8.38
2023-02-24T01:30:18.959Z,9.30
2023-02-24T01:32:48.292Z,9.02
2023-02-24T01:35:17.738Z,8.52
2023-02-24T01:37:46.369Z,7.75
2023-02-24T01:40:21.820Z,8.38
2023-02-24T01:42:50.826Z,8.57
2023-02-24T01:45:25.193Z,8.75
2023-02-24T01:47:54.718Z,8.25
2023-02-24T01:50:26.174Z,9.02
2023-02-24T01:52:58.860Z,9.57
2023-02-24T01:55:32.180Z,10.13
2023-02-24T01:58:05.309Z,11.63
2023-02-24T02:00:47.072Z,11.43
2023-02-24T02:03:23.553Z,12.63
2023-02-24T02:05:51.922Z,12.93
2023-02-24T02:08:21.792Z,12.50
2023-02-24T02:10:57.998Z,14.27
2023-02-24T02:13:27.733Z,15.35
2023-02-24T02:16:07.816Z,14.00
2023-02-24T02:18:48.776Z,13.55
2023-02-24T02:21:59.633Z,14.77
2023-02-24T02:24:37.793Z,14.70
2023-02-24T02:27:35.502Z,12.88
2023-02-24T02:30:34.583Z,13.38
2023-02-24T02:34:05.461Z,13.38
2023-02-24T02:36:39.950Z,13.98
2023-02-24T02:39:15.845Z,12.43
2023-02-24T02:41:53.802Z,12.77
2023-02-24T02:44:26.743Z,12.15
2023-02-24T02:46:58.738Z,11.65
2023-02-24T02:49:33.180Z,11.82
2023-02-24T02:52:07.515Z,13.27
2023-02-24T02:54:45.500Z,12.00
2023-02-24T02:57:20.527Z,12.25
2023-02-24T02:59:54.650Z,11.70
2023-02-24T03:02:28.497Z,11.27
2023-02-24T03:05:04.949Z,12.50
2023-02-24T03:07:40.479Z,11.48
2023-02-24T03:10:17.751Z,12.23
2023-02-24T03:12:48.873Z,12.05
2023-02-24T03:15:21.073Z,12.85
2023-02-24T03:17:56.027Z,11.88
2023-02-24T03:20:32.739Z,12.70
2023-02-24T03:23:04.887Z,13.60
2023-02-24T03:25:44.607Z,14.55
2023-02-24T03:28:19.333Z,15.15
2023-02-24T03:30:53.446Z,15.32
2023-02-24T03:33:26.423Z,14.27
2023-02-24T03:36:01.706Z,15.30
2023-02-24T03:38:33.887Z,16.33
2023-02-24T03:41:02.682Z,15.38
2023-02-24T03:43:35.901Z,14.85
2023-02-24T03:46:06.696Z,14.30
2023-02-24T03:48:39.232Z,15.52
2023-02-24T03:51:09.832Z,15.45
2023-02-24T03:53:58.077Z,16.00
2023-02-24T03:56:40.460Z,16.02
2023-02-24T03:59:18.754Z,15.75
2023-02-24T04:01:56.160Z,14.52
2023-02-24T04:04:30.035Z,13.90
2023-02-24T04:07:16.240Z,14.13
2023-02-24T04:09:51.093Z,13.48
2023-02-24T04:12:24.675Z,13.55
2023-02-24T04:14:59.618Z,13.73
2023-02-24T04:17:32.655Z,14.20
2023-02-24T04:20:12.879Z,12.80
2023-02-24T04:22:50.158Z,12.85
2023-02-24T04:25:24.463Z,12.87
2023-02-24T04:27:55.608Z,14.00
2023-02-24T04:30:26.759Z,13.15
2023-02-24T04:32:56.558Z,11.77
2023-02-24T04:35:27.836Z,11.88
2023-02-24T04:37:58.876Z,12.25
2023-02-24T04:40:27.915Z,11.48
2023-02-24T04:42:56.315Z,13.82
2023-02-24T04:45:26.792Z,11.60
2023-02-24T04:48:01.062Z,11.85
2023-02-24T04:50:31.049Z,11.45
2023-02-24T04:53:02.639Z,12.30
2023-02-24T04:55:33.347Z,11.73
2023-02-24T04:58:02.019Z,13.30
2023-02-24T05:00:35.507Z,12.43
2023-02-24T05:03:05.737Z,12.40
2023-02-24T05:05:34.322Z,12.32
2023-02-24T05:08:06.498Z,12.38
2023-02-24T05:10:38.897Z,12.98
2023-02-24T05:13:09.174Z,12.53
2023-02-24T05:15:41.845Z,11.40
2023-02-24T05:18:14.111Z,11.98
2023-02-24T05:21:02.493Z,10.57
2023-02-24T05:23:34.494Z,10.03
2023-02-24T05:26:08.539Z,10.75
2023-02-24T05:28:37.071Z,10.50
2023-02-24T05:31:08.509Z,10.55
2023-02-24T05:33:37.788Z,9.50
2023-02-24T05:36:08.707Z,10.88
2023-02-24T05:38:38.995Z,10.57
2023-02-24T05:41:08.366Z,10.95
2023-02-24T05:43:39.301Z,11.00
2023-02-24T05:46:07.496Z,10.85
2023-02-24T05:48:36.033Z,10.63
2023-02-24T05:51:08.229Z,10.68
2023-02-24T05:53:41.313Z,10.40
2023-02-24T05:56:09.756Z,8.73
2023-02-24T05:58:39.495Z,8.60
2023-02-24T06:01:16.278Z,9.30
2023-02-24T06:03:48.025Z,8.23
2023-02-24T06:06:17.821Z,7.20
2023-02-24T06:08:50.691Z,6.93
2023-02-24T06:11:21.126Z,7.33
2023-02-24T06:13:49.392Z,6.82
2023-02-24T06:16:18.858Z,6.33
2023-02-24T06:18:49.393Z,6.93
2023-02-24T06:21:17.564Z,6.63
2023-02-24T06:23:47.544Z,7.07
2023-02-24T06:26:19.495Z,7.30
2023-02-24T06:28:48.166Z,7.32
2023-02-24T06:31:16.473Z,8.00
2023-02-24T06:33:44.445Z,10.47
2023-02-24T06:36:14.378Z,8.73
2023-02-24T06:38:42.679Z,8.90
2023-02-24T06:41:12.039Z,8.63
2023-02-24T06:43:40.784Z,9.53
2023-02-24T06:46:09.448Z,9.07
2023-02-24T06:48:38.015Z,7.95
2023-02-24T06:51:07.694Z,8.83
2023-02-24T06:53:36.050Z,7.68
2023-02-24T06:56:14.770Z,7.80
2023-02-24T06:58:45.329Z,7.80
2023-02-24T07:01:14.092Z,8.30
2023-02-24T07:03:47.954Z,6.73
2023-02-24T07:06:23.947Z,7.40
2023-02-24T07:08:53.456Z,7.53
2023-02-24T07:11:22.413Z,7.43
2023-02-24T07:13:54.479Z,7.00
2023-02-24T07:16:25.795Z,7.40
2023-02-24T07:18:56.659Z,7.70
2023-02-24T07:21:26.852Z,7.90
2023-02-24T07:23:58.772Z,8.23
2023-02-24T07:26:30.368Z,10.73
2023-02-24T07:29:04.277Z,8.27
2023-02-24T07:31:34.565Z,8.00
2023-02-24T07:34:02.697Z,8.20
2023-02-24T07:36:34.983Z,9.30
2023-02-24T07:39:03.896Z,8.40
2023-02-24T07:41:31.982Z,8.53
2023-02-24T07:44:03.316Z,8.30
2023-02-24T07:46:32.440Z,8.60
2023-02-24T07:49:01.580Z,8.05
2023-02-24T07:51:29.893Z,7.90
2023-02-24T07:54:00.295Z,7.93
2023-02-24T07:56:31.088Z,8.48
2023-02-24T07:59:02.161Z,7.55
2023-02-24T08:01:38.868Z,7.80
2023-02-24T08:04:09.140Z,9.43
2023-02-24T08:06:39.365Z,8.60
2023-02-24T08:09:18.286Z,8.40
2023-02-24T08:11:49.220Z,8.68
2023-02-24T08:14:23.566Z,8.40
2023-02-24T08:16:59.352Z,9.52
2023-02-24T08:19:32.868Z,9.18
2023-02-24T08:22:19.251Z,9.45
2023-02-24T08:24:50.223Z,8.85
2023-02-24T08:27:20.209Z,8.80
2023-02-24T08:30:01.687Z,8.53
2023-02-24T08:32:33.966Z,7.93
2023-02-24T08:35:04.852Z,8.85
2023-02-24T08:37:39.844Z,7.95
2023-02-24T08:40:29.741Z,8.25
2023-02-24T08:42:58.744Z,9.63
2023-02-24T08:45:33.473Z,9.30
2023-02-24T08:48:13.834Z,9.63
2023-02-24T08:50:45.639Z,9.63
2023-02-24T08:53:19.201Z,11.30
2023-02-24T08:55:51.794Z,11.88
2023-02-24T08:58:27.052Z,10.73
2023-02-24T09:00:59.371Z,11.27
2023-02-24T09:03:29.754Z,11.65
2023-02-24T09:06:04.590Z,11.73
2023-02-24T09:08:34.377Z,9.82
2023-02-24T09:11:08.045Z,10.68
2023-02-24T09:13:37.389Z,11.20
2023-02-24T09:16:16.359Z,11.65
2023-02-24T09:18:44.743Z,11.70
2023-02-24T09:21:31.348Z,11.65
2023-02-24T09:24:00.431Z,11.40
2023-02-24T09:26:32.686Z,11.77
2023-02-24T09:29:00.775Z,12.52
2023-02-24T09:31:40.843Z,13.38
2023-02-24T09:34:10.768Z,13.63
2023-02-24T09:36:45.021Z,14.20
2023-02-24T09:39:15.630Z,14.60
2023-02-24T09:41:56.838Z,13.40
2023-02-24T09:44:34.962Z,13.90
2023-02-24T09:47:14.060Z,14.85
2023-02-24T09:49:48.771Z,16.50
2023-02-24T09:52:19.508Z,15.15
2023-02-24T09:55:09.747Z,16.02
2023-02-24T09:58:02.904Z,17.15
2023-02-24T10:00:33.658Z,14.38
2023-02-24T10:03:19.782Z,15.93
2023-02-24T10:05:58.966Z,15.32
2023-02-24T10:08:34.521Z,14.65
2023-02-24T10:11:08.144Z,14.05
2023-02-24T10:13:40.283Z,15.30
2023-02-24T10:16:12.318Z,15.70
2023-02-24T10:18:46.956Z,14.82
2023-02-24T10:21:30.753Z,16.00
2023-02-24T10:24:14.446Z,14.68
2023-02-24T10:27:00.698Z,14.82
2023-02-24T10:29:50.881Z,13.50
2023-02-24T10:32:24.246Z,12.00
2023-02-24T10:34:54.497Z,11.63
2023-02-24T10:37:29.077Z,12.77
2023-02-24T10:39:59.600Z,11.55
2023-02-24T10:42:31.793Z,11.85
2023-02-24T10:45:18.112Z,13.13
2023-02-24T10:47:56.829Z,12.80
2023-02-24T10:50:32.236Z,12.65
2023-02-24T10:53:34.510Z,11.82
2023-02-24T10:56:23.907Z,11.38
2023-02-24T10:59:20.734Z,11.82
2023-02-24T11:02:01.169Z,12.98
2023-02-24T11:04:53.941Z,13.07
2023-02-24T11:07:33.770Z,11.13
2023-02-24T11:10:12.359Z,13.00
2023-02-24T11:13:09.272Z,13.80
2023-02-24T11:16:00.891Z,14.23
2023-02-24T11:18:31.173Z,14.27
2023-02-24T11:21:01.469Z,14.05
2023-02-24T11:23:34.985Z,14.68
2023-02-24T11:26:07.978Z,15.02
2023-02-24T11:28:48.984Z,15.25
2023-02-24T11:31:29.868Z,17.00
2023-02-24T11:34:06.176Z,16.27
2023-02-24T11:36:41.348Z,16.02
2023-02-24T11:39:47.463Z,16.38
2023-02-24T11:42:20.806Z,15.48
2023-02-24T11:44:56.620Z,14.63
2023-02-24T11:47:30.163Z,11.02
2023-02-24T11:50:14.760Z,10.27
2023-02-24T11:52:47.008Z,11.95
2023-02-24T11:55:27.418Z,12.40
2023-02-24T11:58:01.398Z,9.52
2023-02-24T12:00:33.855Z,9.60
2023-02-24T12:03:09.514Z,9.68
2023-02-24T12:05:42.099Z,11.20
2023-02-24T12:08:22.531Z,10.43
2023-02-24T12:10:59.658Z,10.45
2023-02-24T12:13:38.060Z,10.55
2023-02-24T12:16:12.035Z,10.38
2023-02-24T12:18:44.520Z,7.38
2023-02-24T12:21:17.786Z,6.25
2023-02-24T12:23:48.020Z,8.07
2023-02-24T12:26:25.150Z,7.20
2023-02-24T12:29:16.752Z,9.68
2023-02-24T12:31:57.228Z,9.70
2023-02-24T12:34:37.788Z,8.95
2023-02-24T12:37:36.027Z,9.10
2023-02-24T12:40:17.725Z,8.15
2023-02-24T12:42:58.686Z,7.78
2023-02-24T12:45:39.662Z,7.93
2023-02-24T12:48:16.323Z,7.80
2023-02-24T12:50:53.047Z,7.57
2023-02-24T12:53:24.682Z,7.45
2023-02-24T12:56:04.112Z,8.23
2023-02-24T12:58:37.434Z,7.82
2023-02-24T13:01:14.626Z,8.65
2023-02-24T13:04:22.900Z,7.90
2023-02-24T13:07:02.452Z,8.00
2023-02-24T13:09:45.966Z,8.25
2023-02-24T13:12:18.420Z,8.20
2023-02-24T13:14:48.759Z,7.82
2023-02-24T13:17:20.449Z,7.43
2023-02-24T13:19:52.214Z,6.85
2023-02-24T13:22:27.855Z,7.38
2023-02-24T13:25:13.830Z,7.72
2023-02-24T13:27:44.243Z,6.80
2023-02-24T13:30:29.747Z,7.65
2023-02-24T13:33:04.143Z,6.70
2023-02-24T13:35:35.641Z,6.35
2023-02-24T13:38:22.800Z,6.53
2023-02-24T13:40:50.980Z,5.82
2023-02-24T13:43:28.174Z,6.57
2023-02-24T13:46:00.443Z,6.18
2023-02-24T13:48:55.184Z,6.55
2023-02-24T13:51:49.761Z,5.80
2023-02-24T13:54:41.957Z,6.32
2023-02-24T13:57:31.027Z,6.75
2023-02-24T14:00:11.468Z,6.70
2023-02-24T14:02:45.188Z,6.20
2023-02-24T14:05:21.298Z,6.63
2023-02-24T14:07:53.175Z,5.80
2023-02-24T14:10:24.987Z,6.57
2023-02-24T14:13:04.150Z,6.95
2023-02-24T14:15:32.839Z,7.03
2023-02-24T14:18:04.672Z,6.38
2023-02-24T14:20:33.543Z,6.40
2023-02-24T14:23:02.705Z,6.35
2023-02-24T14:25:38.779Z,7.53
2023-02-24T14:28:07.289Z,6.18
2023-02-24T14:30:38.488Z,6.72
2023-02-24T14:33:21.387Z,6.20
2023-02-24T14:35:49.840Z,7.35
2023-02-24T14:38:30.288Z,7.10
2023-02-24T14:40:58.468Z,6.93
2023-02-24T14:43:26.675Z,6.93
2023-02-24T14:45:57.591Z,6.72
2023-02-24T14:48:28.651Z,7.40
2023-02-24T14:51:02.950Z,6.78
2023-02-24T14:53:34.334Z,6.75
2023-02-24T14:56:06.187Z,7.32
2023-02-24T14:58:39.702Z,7.00
2023-02-24T15:01:19.339Z,6.63
2023-02-24T15:03:50.767Z,7.55
2023-02-24T15:06:24.984Z,7.22
2023-02-24T15:08:59.335Z,6.38
2023-02-24T15:11:29.802Z,7.75
2023-02-24T15:14:00.722Z,7.40
2023-02-24T15:16:34.442Z,6.40
2023-02-24T15:19:04.333Z,7.47
2023-02-24T15:21:33.974Z,7.07
2023-02-24T15:24:03.655Z,6.70
2023-02-24T15:26:33.440Z,7.10
2023-02-24T15:29:03.095Z,7.10
2023-02-24T15:31:31.798Z,6.93
2023-02-24T15:34:02.144Z,6.40
2023-02-24T15:36:33.907Z,6.82
2023-02-24T15:39:04.912Z,6.88
2023-02-24T15:41:41.057Z,6.47
2023-02-24T15:44:26.020Z,7.38
2023-02-24T15:46:54.415Z,6.45
2023-02-24T15:49:22.460Z,6.57
2023-02-24T15:51:53.905Z,6.10
2023-02-24T15:54:29.226Z,6.50
2023-02-24T15:56:59.077Z,8.15
2023-02-24T15:59:27.326Z,7.70
2023-02-24T16:01:55.420Z,6.78
2023-02-24T16:04:24.146Z,6.80
2023-02-24T16:06:55.916Z,7.78
2023-02-24T16:09:32.128Z,6.97
2023-02-24T16:12:01.164Z,8.20
2023-02-24T16:14:29.176Z,8.25
2023-02-24T16:16:57.292Z,7.25
2023-02-24T16:19:25.667Z,7.20
2023-02-24T16:21:55.045Z,7.95
2023-02-24T16:24:23.025Z,8.07
2023-02-24T16:26:51.219Z,7.50
2023-02-24T16:29:19.287Z,7.93
2023-02-24T16:31:47.501Z,6.80
2023-02-24T16:34:16.907Z,6.82
2023-02-24T16:36:45.311Z,6.28
2023-02-24T16:39:15.102Z,6.68
2023-02-24T16:41:43.092Z,6.57
2023-02-24T16:44:11.470Z,6.75
2023-02-24T16:46:42.261Z,6.70
2023-02-24T16:49:14.829Z,7.25
2023-02-24T16:51:42.842Z,7.15
2023-02-24T16:54:10.946Z,6.50
2023-02-24T16:56:40.340Z,5.80
2023-02-24T16:59:08.307Z,5.95
2023-02-24T17:01:36.360Z,5.85
2023-02-24T17:04:09.750Z,5.57
2023-02-24T17:06:37.775Z,5.55
2023-02-24T17:09:05.873Z,6.03
2023-02-24T17:11:34.000Z,5.47
2023-02-24T17:14:03.343Z,6.15
2023-02-24T17:16:31.545Z,6.07
2023-02-24T17:19:00.226Z,7.03
2023-02-24T17:21:29.473Z,6.15
2023-02-24T17:23:59.152Z,5.93
2023-02-24T17:26:27.732Z,6.20
2023-02-24T17:28:55.815Z,5.65
2023-02-24T17:31:28.416Z,6.00
2023-02-24T17:33:56.462Z,6.60
2023-02-24T17:36:24.549Z,7.03
2023-02-24T17:38:53.076Z,7.80
2023-02-24T17:41:21.066Z,6.75
2023-02-24T17:43:51.732Z,6.90
2023-02-24T17:46:20.212Z,7.15
2023-02-24T17:48:49.687Z,8.18
2023-02-24T17:51:19.766Z,10.48
2023-02-24T17:53:47.933Z,8.07
2023-02-24T17:56:15.936Z,7.60
2023-02-24T17:58:43.919Z,8.25
2023-02-24T18:01:12.664Z,7.05
2023-02-24T18:03:40.819Z,7.75
2023-02-24T18:06:12.214Z,7.88
2023-02-24T18:08:41.292Z,9.02
2023-02-24T18:11:12.417Z,7.05
2023-02-24T18:13:40.405Z,7.47
2023-02-24T18:16:11.102Z,7.15
2023-02-24T18:18:39.588Z,8.05
2023-02-24T18:21:08.612Z,6.80
2023-02-24T18:23:40.454Z,7.57
2023-02-24T18:26:10.285Z,6.90
2023-02-24T18:28:38.665Z,7.07
2023-02-24T18:31:12.355Z,7.72
2023-02-24T18:33:40.599Z,7.68
2023-02-24T18:36:10.226Z,7.22
2023-02-24T18:38:39.696Z,6.63
2023-02-24T18:41:09.590Z,7.15
2023-02-24T18:43:38.682Z,6.80
2023-02-24T18:46:09.057Z,6.90
2023-02-24T18:48:37.637Z,6.82
2023-02-24T18:51:05.885Z,6.38
2023-02-24T18:53:36.872Z,6.78
2023-02-24T18:56:08.858Z,7.60
2023-02-24T18:58:38.634Z,6.72
2023-02-24T19:01:12.608Z,6.70
2023-02-24T19:03:41.057Z,6.05
2023-02-24T19:06:09.091Z,7.00
2023-02-24T19:08:37.049Z,6.72
2023-02-24T19:11:10.659Z,6.43
2023-02-24T19:13:38.764Z,7.28
2023-02-24T19:16:07.965Z,7.22
2023-02-24T19:18:36.463Z,6.60
2023-02-24T19:21:06.580Z,6.38
2023-02-24T19:23:34.868Z,6.35
2023-02-24T19:26:03.074Z,6.05
2023-02-24T19:28:32.445Z,6.03
2023-02-24T19:31:00.534Z,5.90
2023-02-24T19:33:28.605Z,5.95
2023-02-24T19:35:59.883Z,5.45
2023-02-24T19:38:28.488Z,7.10
2023-02-24T19:40:59.001Z,5.72
2023-02-24T19:43:27.430Z,8.65
2023-02-24T19:45:56.820Z,5.25
2023-02-24T19:48:24.856Z,5.00
2023-02-24T19:50:52.848Z,5.22
2023-02-24T19:53:20.771Z,5.65
2023-02-24T19:55:51.669Z,6.22
2023-02-24T19:58:19.738Z,5.07
2023-02-24T20:00:48.458Z,6.25
2023-02-24T20:03:17.961Z,5.38
2023-02-24T20:05:45.925Z,5.85
2023-02-24T20:08:13.881Z,3.95
2023-02-24T20:10:41.826Z,4.90
2023-02-24T20:13:09.825Z,4.95
2023-02-24T20:15:37.878Z,4.70
2023-02-24T20:18:08.824Z,4.60
2023-02-24T20:20:38.442Z,6.47
2023-02-24T20:23:06.428Z,5.80
2023-02-24T20:25:34.411Z,4.32
2023-02-24T20:28:03.011Z,4.68
2023-02-24T20:30:31.042Z,4.03
2023-02-24T20:32:59.632Z,5.50
2023-02-24T20:35:28.554Z,5.55
2023-02-24T20:37:57.879Z,5.13
2023-02-24T20:40:25.855Z,3.60
2023-02-24T20:42:53.847Z,2.90
2023-02-24T20:45:21.953Z,3.50
2023-02-24T20:47:51.064Z,2.72
2023-02-24T20:50:19.265Z,3.08
2023-02-24T20:52:47.289Z,3.95
2023-02-24T20:55:16.817Z,3.10
2023-02-24T20:57:44.797Z,3.08
2023-02-24T21:00:15.506Z,3.08
2023-02-24T21:02:44.105Z,3.10
2023-02-24T21:05:20.427Z,2.83
2023-02-24T21:07:50.737Z,3.30
2023-02-24T21:10:22.504Z,2.85
2023-02-24T21:12:52.540Z,3.17
2023-02-24T21:15:21.823Z,2.92
2023-02-24T21:17:49.784Z,3.58
2023-02-24T21:20:17.781Z,3.50
2023-02-24T21:22:45.793Z,3.70
2023-02-24T21:25:13.779Z,3.90
2023-02-24T21:27:43.136Z,4.95
2023-02-24T21:30:12.334Z,5.13
2023-02-24T21:32:40.318Z,4.97
2023-02-24T21:35:09.396Z,4.95
2023-02-24T21:37:37.356Z,4.07
2023-02-24T21:40:11.107Z,4.18
2023-02-24T21:42:41.962Z,4.35
2023-02-24T21:45:12.216Z,4.30
2023-02-24T21:47:41.005Z,4.22
2023-02-24T21:50:12.065Z,4.57
2023-02-24T21:52:40.529Z,5.47
2023-02-24T21:55:09.689Z,5.90
2023-02-24T21:57:41.302Z,5.68
2023-02-24T22:00:18.305Z,5.07
2023-02-24T22:02:47.503Z,5.05
2023-02-24T22:05:16.696Z,4.97
2023-02-24T22:07:45.038Z,4.70
2023-02-24T22:10:14.417Z,4.13
2023-02-24T22:12:42.386Z,3.58
2023-02-24T22:15:12.662Z,3.67
2023-02-24T22:17:41.809Z,4.07
2023-02-24T22:20:13.692Z,4.07
2023-02-24T22:22:43.426Z,4.00
2023-02-24T22:25:12.006Z,3.85
2023-02-24T22:27:40.068Z,3.17
2023-02-24T22:30:09.572Z,3.90
2023-02-24T22:32:38.972Z,3.70
2023-02-24T22:35:07.877Z,4.30
2023-02-24T22:37:35.911Z,4.78
2023-02-24T22:40:03.947Z,3.70
2023-02-24T22:42:31.954Z,4.13
2023-02-24T22:45:00.270Z,3.50
2023-02-24T22:47:28.266Z,3.97
2023-02-24T22:49:57.645Z,3.17
2023-02-24T22:52:26.803Z,2.90
2023-02-24T22:54:55.562Z,2.97
2023-02-24T22:57:23.523Z,2.70
2023-02-24T22:59:51.466Z,3.22
2023-02-24T23:02:19.458Z,2.85
2023-02-24T23:04:47.492Z,2.53
2023-02-24T23:07:16.862Z,2.67
2023-02-24T23:09:52.937Z,2.10
2023-02-24T23:12:22.301Z,1.88
2023-02-24T23:14:50.332Z,1.60
2023-02-24T23:17:18.355Z,1.77
2023-02-24T23:19:46.320Z,1.80
2023-02-24T23:22:14.783Z,1.65
2023-02-24T23:24:44.736Z,1.98
2023-02-24T23:27:12.736Z,2.22
2023-02-24T23:29:40.977Z,1.73
2023-02-24T23:32:09.051Z,1.85
2023-02-24T23:34:37.099Z,1.85
2023-02-24T23:37:05.804Z,2.00
2023-02-24T23:39:33.942Z,1.80
2023-02-24T23:42:03.350Z,2.08
2023-02-24T23:44:31.374Z,1.77
2023-02-24T23:47:01.234Z,1.85
2023-02-24T23:49:42.402Z,1.90
2023-02-24T23:52:14.293Z,2.10
2023-02-24T23:54:42.252Z,1.88
2023-02-24T23:57:11.609Z,2.40
2023-02-24T23:59:39.593Z,2.05
